sensor_id;sensor_type;location;lat;lon;timestamp;pressure;altitude;pressure_sealevel;temperature;humidity
64551;BME280;50945;44.472;-123.352;2022-12-07T00:01:31;100978.19;;;4.06;90.42
64551;BME280;50945;44.472;-123.352;2022-12-07T00:04:00;100974.66;;;4.06;90.92
64551;BME280;50945;44.472;-123.352;2022-12-07T00:06:38;100977.47;;;4.04;90.62
64551;BME280;50945;44.472;-123.352;2022-12-07T00:09:06;100976.63;;;4.04;90.78
64551;BME280;50945;44.472;-123.352;2022-12-07T00:11:33;100980.31;;;4.03;90.42
64551;BME280;50945;44.472;-123.352;2022-12-07T00:14:03;100973.44;;;3.98;90.83
64551;BME280;50945;44.472;-123.352;2022-12-07T00:16:31;100975.28;;;3.98;90.65
64551;BME280;50945;44.472;-123.352;2022-12-07T00:18:59;100987.22;;;3.95;90.72
64551;BME280;50945;44.472;-123.352;2022-12-07T00:21:29;100975.78;;;3.92;90.66
64551;BME280;50945;44.472;-123.352;2022-12-07T00:23:56;100984.88;;;3.91;90.89
64551;BME280;50945;44.472;-123.352;2022-12-07T00:26:28;100979.75;;;3.88;91.13
64551;BME280;50945;44.472;-123.352;2022-12-07T00:28:58;100978.41;;;3.82;91.10
64551;BME280;50945;44.472;-123.352;2022-12-07T00:31:27;100986.88;;;3.77;91.28
64551;BME280;50945;44.472;-123.352;2022-12-07T00:33:54;100979.91;;;3.75;91.27
64551;BME280;50945;44.472;-123.352;2022-12-07T00:36:22;100980.13;;;3.72;90.82
64551;BME280;50945;44.472;-123.352;2022-12-07T00:38:49;100971.53;;;3.67;91.15
64551;BME280;50945;44.472;-123.352;2022-12-07T00:41:20;100975.47;;;3.63;90.86
64551;BME280;50945;44.472;-123.352;2022-12-07T00:43:48;100976.56;;;3.60;91.04
64551;BME280;50945;44.472;-123.352;2022-12-07T00:46:15;100981.38;;;3.56;91.55
64551;BME280;50945;44.472;-123.352;2022-12-07T00:48:42;100984.47;;;3.52;91.52
64551;BME280;50945;44.472;-123.352;2022-12-07T00:51:10;100965.78;;;3.49;91.61
64551;BME280;50945;44.472;-123.352;2022-12-07T00:53:38;100974.00;;;3.47;91.44
64551;BME280;50945;44.472;-123.352;2022-12-07T00:56:15;100962.47;;;3.45;91.74
64551;BME280;50945;44.472;-123.352;2022-12-07T00:58:41;100971.53;;;3.44;91.60
64551;BME280;50945;44.472;-123.352;2022-12-07T01:01:09;100976.22;;;3.42;91.95
64551;BME280;50945;44.472;-123.352;2022-12-07T01:03:36;100972.91;;;3.38;91.93
64551;BME280;50945;44.472;-123.352;2022-12-07T01:06:03;100982.97;;;3.36;91.69
64551;BME280;50945;44.472;-123.352;2022-12-07T01:08:30;100982.25;;;3.34;92.40
64551;BME280;50945;44.472;-123.352;2022-12-07T01:11:04;100991.09;;;3.36;91.81
64551;BME280;50945;44.472;-123.352;2022-12-07T01:13:32;100983.94;;;3.35;92.02
64551;BME280;50945;44.472;-123.352;2022-12-07T01:16:00;100989.47;;;3.34;92.12
64551;BME280;50945;44.472;-123.352;2022-12-07T01:18:29;101002.13;;;3.33;91.81
64551;BME280;50945;44.472;-123.352;2022-12-07T01:21:02;100996.72;;;3.33;92.26
64551;BME280;50945;44.472;-123.352;2022-12-07T01:23:29;101003.38;;;3.29;92.88
64551;BME280;50945;44.472;-123.352;2022-12-07T01:25:59;101006.44;;;3.24;92.29
64551;BME280;50945;44.472;-123.352;2022-12-07T01:28:27;101017.63;;;3.20;92.50
64551;BME280;50945;44.472;-123.352;2022-12-07T01:31:02;101007.28;;;3.14;92.50
64551;BME280;50945;44.472;-123.352;2022-12-07T01:33:31;101009.25;;;3.12;92.84
64551;BME280;50945;44.472;-123.352;2022-12-07T01:36:12;101014.88;;;3.09;92.62
64551;BME280;50945;44.472;-123.352;2022-12-07T01:38:39;101012.28;;;3.07;93.07
64551;BME280;50945;44.472;-123.352;2022-12-07T01:41:06;101009.59;;;3.07;92.86
64551;BME280;50945;44.472;-123.352;2022-12-07T01:43:33;101018.81;;;3.04;92.74
64551;BME280;50945;44.472;-123.352;2022-12-07T01:46:01;101007.91;;;3.06;93.13
64551;BME280;50945;44.472;-123.352;2022-12-07T01:48:34;101010.59;;;3.06;92.88
64551;BME280;50945;44.472;-123.352;2022-12-07T01:51:09;101016.34;;;3.01;92.96
64551;BME280;50945;44.472;-123.352;2022-12-07T01:53:41;101017.47;;;2.99;93.28
64551;BME280;50945;44.472;-123.352;2022-12-07T01:56:12;101017.47;;;2.99;93.46
64551;BME280;50945;44.472;-123.352;2022-12-07T01:58:40;101007.00;;;2.94;93.29
64551;BME280;50945;44.472;-123.352;2022-12-07T02:01:06;101012.63;;;2.91;93.19
64551;BME280;50945;44.472;-123.352;2022-12-07T02:03:43;101011.16;;;2.87;93.19
64551;BME280;50945;44.472;-123.352;2022-12-07T02:06:12;101008.69;;;2.84;93.44
64551;BME280;50945;44.472;-123.352;2022-12-07T02:08:40;101011.50;;;2.82;93.89
64551;BME280;50945;44.472;-123.352;2022-12-07T02:11:07;101014.34;;;2.81;94.50
64551;BME280;50945;44.472;-123.352;2022-12-07T02:13:36;101017.78;;;2.83;94.48
64551;BME280;50945;44.472;-123.352;2022-12-07T02:18:45;101006.09;;;2.82;93.90
64551;BME280;50945;44.472;-123.352;2022-12-07T02:26:50;101010.66;;;2.82;94.01
64551;BME280;50945;44.472;-123.352;2022-12-07T02:35:09;101012.38;;;2.83;94.48
64551;BME280;50945;44.472;-123.352;2022-12-07T02:43:24;101022.31;;;2.82;94.55
64551;BME280;50945;44.472;-123.352;2022-12-07T02:46:03;101023.19;;;2.83;94.52
64551;BME280;50945;44.472;-123.352;2022-12-07T02:48:31;101020.59;;;2.81;94.86
64551;BME280;50945;44.472;-123.352;2022-12-07T02:50:59;101017.91;;;2.81;94.46
64551;BME280;50945;44.472;-123.352;2022-12-07T02:56:07;101014.56;;;2.78;94.53
64551;BME280;50945;44.472;-123.352;2022-12-07T03:05:13;101017.09;;;2.68;95.14
64551;BME280;50945;44.472;-123.352;2022-12-07T03:15:27;101027.69;;;2.71;95.25
64551;BME280;50945;44.472;-123.352;2022-12-07T03:17:57;101035.78;;;2.71;95.10
64551;BME280;50945;44.472;-123.352;2022-12-07T03:20:26;101036.41;;;2.75;95.01
64551;BME280;50945;44.472;-123.352;2022-12-07T03:22:54;101034.72;;;2.74;94.97
64551;BME280;50945;44.472;-123.352;2022-12-07T03:25:22;101046.34;;;2.74;94.71
64551;BME280;50945;44.472;-123.352;2022-12-07T03:28:04;101041.91;;;2.73;94.61
64551;BME280;50945;44.472;-123.352;2022-12-07T03:30:56;101046.59;;;2.71;94.44
64551;BME280;50945;44.472;-123.352;2022-12-07T03:33:30;101051.97;;;2.71;94.79
64551;BME280;50945;44.472;-123.352;2022-12-07T03:36:19;101052.09;;;2.70;95.03
64551;BME280;50945;44.472;-123.352;2022-12-07T03:39:20;101049.50;;;2.68;94.80
64551;BME280;50945;44.472;-123.352;2022-12-07T03:41:49;101053.19;;;2.67;95.21
64551;BME280;50945;44.472;-123.352;2022-12-07T03:44:17;101054.06;;;2.67;94.78
64551;BME280;50945;44.472;-123.352;2022-12-07T03:49:51;101063.50;;;2.62;95.11
64551;BME280;50945;44.472;-123.352;2022-12-07T03:52:26;101066.41;;;2.59;94.86
64551;BME280;50945;44.472;-123.352;2022-12-07T03:57:34;101063.06;;;2.55;94.78
64551;BME280;50945;44.472;-123.352;2022-12-07T04:00:06;101067.63;;;2.55;94.84
64551;BME280;50945;44.472;-123.352;2022-12-07T04:02:33;101060.50;;;2.54;94.99
64551;BME280;50945;44.472;-123.352;2022-12-07T04:05:00;101071.53;;;2.51;94.73
64551;BME280;50945;44.472;-123.352;2022-12-07T04:07:27;101064.63;;;2.46;94.73
64551;BME280;50945;44.472;-123.352;2022-12-07T04:09:53;101069.28;;;2.44;95.43
64551;BME280;50945;44.472;-123.352;2022-12-07T04:12:23;101077.50;;;2.43;95.37
64551;BME280;50945;44.472;-123.352;2022-12-07T04:14:50;101083.88;;;2.42;95.26
64551;BME280;50945;44.472;-123.352;2022-12-07T04:17:16;101089.28;;;2.42;95.18
64551;BME280;50945;44.472;-123.352;2022-12-07T04:19:43;101084.84;;;2.41;94.99
64551;BME280;50945;44.472;-123.352;2022-12-07T04:22:12;101084.09;;;2.39;95.33
64551;BME280;50945;44.472;-123.352;2022-12-07T04:24:38;101085.06;;;2.38;95.14
64551;BME280;50945;44.472;-123.352;2022-12-07T04:27:05;101096.84;;;2.37;95.49
64551;BME280;50945;44.472;-123.352;2022-12-07T04:29:31;101095.00;;;2.37;95.32
64551;BME280;50945;44.472;-123.352;2022-12-07T04:31:58;101086.06;;;2.37;95.25
64551;BME280;50945;44.472;-123.352;2022-12-07T04:34:24;101090.72;;;2.35;95.25
64551;BME280;50945;44.472;-123.352;2022-12-07T04:36:51;101092.63;;;2.33;95.56
64551;BME280;50945;44.472;-123.352;2022-12-07T04:39:29;101094.47;;;2.32;95.19
64551;BME280;50945;44.472;-123.352;2022-12-07T04:41:56;101096.34;;;2.32;95.31
64551;BME280;50945;44.472;-123.352;2022-12-07T04:44:23;101088.22;;;2.32;95.93
64551;BME280;50945;44.472;-123.352;2022-12-07T04:46:51;101105.28;;;2.32;95.89
64551;BME280;50945;44.472;-123.352;2022-12-07T04:49:18;101091.78;;;2.32;95.53
64551;BME280;50945;44.472;-123.352;2022-12-07T04:51:45;101094.59;;;2.31;95.71
64551;BME280;50945;44.472;-123.352;2022-12-07T04:54:13;101096.44;;;2.30;95.32
64551;BME280;50945;44.472;-123.352;2022-12-07T04:56:41;101103.69;;;2.30;95.22
64551;BME280;50945;44.472;-123.352;2022-12-07T04:59:09;101103.78;;;2.28;95.48
64551;BME280;50945;44.472;-123.352;2022-12-07T05:01:36;101094.94;;;2.26;95.30
64551;BME280;50945;44.472;-123.352;2022-12-07T05:04:04;101099.47;;;2.25;95.33
64551;BME280;50945;44.472;-123.352;2022-12-07T05:06:31;101107.44;;;2.27;95.30
64551;BME280;50945;44.472;-123.352;2022-12-07T05:08:57;101103.91;;;2.26;95.29
64551;BME280;50945;44.472;-123.352;2022-12-07T05:11:33;101115.53;;;2.27;95.19
64551;BME280;50945;44.472;-123.352;2022-12-07T05:14:10;101102.94;;;2.27;95.02
64551;BME280;50945;44.472;-123.352;2022-12-07T05:16:38;101109.19;;;2.28;95.49
64551;BME280;50945;44.472;-123.352;2022-12-07T05:19:05;101118.88;;;2.31;95.79
64551;BME280;50945;44.472;-123.352;2022-12-07T05:21:31;101113.38;;;2.32;95.16
64551;BME280;50945;44.472;-123.352;2022-12-07T05:23:58;101119.63;;;2.33;95.30
64551;BME280;50945;44.472;-123.352;2022-12-07T05:26:25;101120.50;;;2.33;95.72
64551;BME280;50945;44.472;-123.352;2022-12-07T05:28:52;101123.09;;;2.35;95.28
64551;BME280;50945;44.472;-123.352;2022-12-07T05:31:19;101122.09;;;2.36;95.34
64551;BME280;50945;44.472;-123.352;2022-12-07T05:33:47;101130.09;;;2.37;95.28
64551;BME280;50945;44.472;-123.352;2022-12-07T05:36:14;101125.53;;;2.38;95.40
64551;BME280;50945;44.472;-123.352;2022-12-07T05:38:41;101128.25;;;2.38;95.44
64551;BME280;50945;44.472;-123.352;2022-12-07T05:41:09;101126.53;;;2.37;95.08
64551;BME280;50945;44.472;-123.352;2022-12-07T05:43:57;101129.25;;;2.37;95.13
64551;BME280;50945;44.472;-123.352;2022-12-07T05:46:24;101134.53;;;2.38;95.08
64551;BME280;50945;44.472;-123.352;2022-12-07T05:48:50;101133.75;;;2.36;94.49
64551;BME280;50945;44.472;-123.352;2022-12-07T05:51:17;101134.63;;;2.37;94.64
64551;BME280;50945;44.472;-123.352;2022-12-07T05:53:44;101133.75;;;2.36;95.88
64551;BME280;50945;44.472;-123.352;2022-12-07T05:56:14;101134.75;;;2.35;95.48
64551;BME280;50945;44.472;-123.352;2022-12-07T05:58:40;101125.78;;;2.35;95.29
64551;BME280;50945;44.472;-123.352;2022-12-07T06:01:25;101133.00;;;2.34;95.44
64551;BME280;50945;44.472;-123.352;2022-12-07T06:03:51;101125.78;;;2.35;95.17
64551;BME280;50945;44.472;-123.352;2022-12-07T06:06:18;101137.44;;;2.35;95.29
64551;BME280;50945;44.472;-123.352;2022-12-07T06:08:44;101133.00;;;2.34;95.61
64551;BME280;50945;44.472;-123.352;2022-12-07T06:11:11;101129.25;;;2.37;95.11
64551;BME280;50945;44.472;-123.352;2022-12-07T06:13:56;101129.25;;;2.37;95.19
64551;BME280;50945;44.472;-123.352;2022-12-07T06:16:22;101132.78;;;2.37;95.13
64551;BME280;50945;44.472;-123.352;2022-12-07T06:18:48;101129.34;;;2.35;95.00
64551;BME280;50945;44.472;-123.352;2022-12-07T06:21:15;101131.31;;;2.33;94.69
64551;BME280;50945;44.472;-123.352;2022-12-07T06:23:41;101126.88;;;2.32;94.75
64551;BME280;50945;44.472;-123.352;2022-12-07T06:26:08;101133.13;;;2.33;94.91
64551;BME280;50945;44.472;-123.352;2022-12-07T06:28:34;101133.25;;;2.31;94.96
64551;BME280;50945;44.472;-123.352;2022-12-07T06:31:02;101128.94;;;2.28;94.65
64551;BME280;50945;44.472;-123.352;2022-12-07T06:33:29;101129.91;;;2.27;94.40
64551;BME280;50945;44.472;-123.352;2022-12-07T06:35:56;101128.94;;;2.28;94.94
64551;BME280;50945;44.472;-123.352;2022-12-07T06:38:22;101137.03;;;2.28;95.01
64551;BME280;50945;44.472;-123.352;2022-12-07T06:40:48;101133.47;;;2.28;95.05
64551;BME280;50945;44.472;-123.352;2022-12-07T06:43:15;101134.22;;;2.30;95.21
64551;BME280;50945;44.472;-123.352;2022-12-07T06:45:42;101131.41;;;2.32;95.29
64551;BME280;50945;44.472;-123.352;2022-12-07T06:48:08;101128.72;;;2.32;95.18
64551;BME280;50945;44.472;-123.352;2022-12-07T06:50:35;101131.31;;;2.33;94.87
64551;BME280;50945;44.472;-123.352;2022-12-07T06:53:01;101131.31;;;2.33;94.90
64551;BME280;50945;44.472;-123.352;2022-12-07T06:55:27;101130.41;;;2.33;94.48
64551;BME280;50945;44.472;-123.352;2022-12-07T06:57:54;101124.38;;;2.29;94.46
64551;BME280;50945;44.472;-123.352;2022-12-07T07:00:20;101125.38;;;2.28;95.00
64551;BME280;50945;44.472;-123.352;2022-12-07T07:02:47;101118.25;;;2.27;94.37
64551;BME280;50945;44.472;-123.352;2022-12-07T07:05:13;101113.09;;;2.24;95.00
64551;BME280;50945;44.472;-123.352;2022-12-07T07:07:39;101114.91;;;2.23;94.63
64551;BME280;50945;44.472;-123.352;2022-12-07T07:10:06;101119.56;;;2.21;94.83
64551;BME280;50945;44.472;-123.352;2022-12-07T07:12:32;101108.78;;;2.21;94.71
64551;BME280;50945;44.472;-123.352;2022-12-07T07:15:01;101103.38;;;2.21;94.48
64551;BME280;50945;44.472;-123.352;2022-12-07T07:17:28;101104.47;;;2.19;94.84
64551;BME280;50945;44.472;-123.352;2022-12-07T07:19:54;101106.28;;;2.18;94.83
64551;BME280;50945;44.472;-123.352;2022-12-07T07:22:20;101092.91;;;2.17;95.04
64551;BME280;50945;44.472;-123.352;2022-12-07T07:24:47;101099.28;;;2.16;94.72
64551;BME280;50945;44.472;-123.352;2022-12-07T07:27:13;101103.84;;;2.15;95.16
64551;BME280;50945;44.472;-123.352;2022-12-07T07:29:43;101100.34;;;2.13;95.14
64551;BME280;50945;44.472;-123.352;2022-12-07T07:32:09;101106.63;;;2.14;94.74
64551;BME280;50945;44.472;-123.352;2022-12-07T07:34:35;101111.16;;;2.13;95.06
64551;BME280;50945;44.472;-123.352;2022-12-07T07:37:01;101113.00;;;2.13;94.80
64551;BME280;50945;44.472;-123.352;2022-12-07T07:39:28;101107.72;;;2.11;95.24
64551;BME280;50945;44.472;-123.352;2022-12-07T07:41:54;101106.84;;;2.11;94.82
64551;BME280;50945;44.472;-123.352;2022-12-07T07:44:21;101114.94;;;2.11;94.98
64551;BME280;50945;44.472;-123.352;2022-12-07T07:46:47;101113.00;;;2.13;95.06
64551;BME280;50945;44.472;-123.352;2022-12-07T07:49:13;101107.59;;;2.13;94.79
64551;BME280;50945;44.472;-123.352;2022-12-07T07:51:39;101114.00;;;2.12;95.15
64551;BME280;50945;44.472;-123.352;2022-12-07T07:54:06;101107.81;;;2.09;94.58
64551;BME280;50945;44.472;-123.352;2022-12-07T07:56:32;101117.84;;;2.07;94.81
64551;BME280;50945;44.472;-123.352;2022-12-07T07:58:58;101126.19;;;2.04;94.81
64551;BME280;50945;44.472;-123.352;2022-12-07T08:01:25;101132.56;;;2.03;94.72
64551;BME280;50945;44.472;-123.352;2022-12-07T08:03:51;101123.72;;;2.01;94.55
64551;BME280;50945;44.472;-123.352;2022-12-07T08:06:17;101120.28;;;1.99;94.84
64551;BME280;50945;44.472;-123.352;2022-12-07T08:08:43;101120.47;;;1.96;94.71
64551;BME280;50945;44.472;-123.352;2022-12-07T08:11:10;101114.34;;;1.94;94.63
64551;BME280;50945;44.472;-123.352;2022-12-07T08:13:37;101114.44;;;1.93;94.65
64551;BME280;50945;44.472;-123.352;2022-12-07T08:16:09;101108.19;;;1.92;94.86
64551;BME280;50945;44.472;-123.352;2022-12-07T08:18:36;101118.22;;;1.90;94.71
64551;BME280;50945;44.472;-123.352;2022-12-07T08:21:04;101110.00;;;1.92;95.32
64551;BME280;50945;44.472;-123.352;2022-12-07T08:23:31;101114.56;;;1.91;94.84
64551;BME280;50945;44.472;-123.352;2022-12-07T08:26:05;101112.72;;;1.92;94.89
64551;BME280;50945;44.472;-123.352;2022-12-07T08:28:32;101103.78;;;1.91;94.85
64551;BME280;50945;44.472;-123.352;2022-12-07T08:31:07;101100.97;;;1.93;94.92
64551;BME280;50945;44.472;-123.352;2022-12-07T08:33:34;101097.28;;;1.94;94.90
64551;BME280;50945;44.472;-123.352;2022-12-07T08:36:06;101106.25;;;1.94;94.59
64551;BME280;50945;44.472;-123.352;2022-12-07T08:38:37;101103.56;;;1.94;94.25
64551;BME280;50945;44.472;-123.352;2022-12-07T08:41:04;101103.66;;;1.93;94.42
64551;BME280;50945;44.472;-123.352;2022-12-07T08:43:31;101110.00;;;1.92;94.50
64551;BME280;50945;44.472;-123.352;2022-12-07T08:46:23;101107.56;;;1.88;94.38
64551;BME280;50945;44.472;-123.352;2022-12-07T08:48:52;101109.47;;;1.86;95.02
64551;BME280;50945;44.472;-123.352;2022-12-07T08:51:21;101107.66;;;1.87;94.71
64551;BME280;50945;44.472;-123.352;2022-12-07T08:53:49;101106.78;;;1.86;94.83
64551;BME280;50945;44.472;-123.352;2022-12-07T08:56:17;101113.28;;;1.84;94.73
64551;BME280;50945;44.472;-123.352;2022-12-07T08:58:43;101110.03;;;1.79;94.30
64551;BME280;50945;44.472;-123.352;2022-12-07T09:01:10;101101.31;;;1.75;94.25
64551;BME280;50945;44.472;-123.352;2022-12-07T09:03:36;101097.75;;;1.75;94.17
64551;BME280;50945;44.472;-123.352;2022-12-07T09:06:03;101096.13;;;1.72;94.45
64551;BME280;50945;44.472;-123.352;2022-12-07T09:08:36;101105.09;;;1.73;94.59
64551;BME280;50945;44.472;-123.352;2022-12-07T09:11:04;101095.06;;;1.75;94.38
64551;BME280;50945;44.472;-123.352;2022-12-07T09:13:30;101097.13;;;1.71;94.28
64551;BME280;50945;44.472;-123.352;2022-12-07T09:15:57;101091.19;;;1.66;93.91
64551;BME280;50945;44.472;-123.352;2022-12-07T09:18:23;101088.81;;;1.61;93.88
64551;BME280;50945;44.472;-123.352;2022-12-07T09:20:50;101083.75;;;1.57;93.74
64551;BME280;50945;44.472;-123.352;2022-12-07T09:23:20;101085.81;;;1.53;94.30
64551;BME280;50945;44.472;-123.352;2022-12-07T09:25:46;101086.88;;;1.50;94.25
64551;BME280;50945;44.472;-123.352;2022-12-07T09:28:12;101087.09;;;1.47;94.19
64551;BME280;50945;44.472;-123.352;2022-12-07T09:30:39;101088.94;;;1.47;94.48
64551;BME280;50945;44.472;-123.352;2022-12-07T09:33:10;101084.38;;;1.47;94.52
64551;BME280;50945;44.472;-123.352;2022-12-07T09:35:37;101083.31;;;1.50;94.91
64551;BME280;50945;44.472;-123.352;2022-12-07T09:38:03;101085.03;;;1.51;94.23
64551;BME280;50945;44.472;-123.352;2022-12-07T09:40:29;101078.69;;;1.52;94.64
64551;BME280;50945;44.472;-123.352;2022-12-07T09:42:56;101085.81;;;1.53;94.70
64551;BME280;50945;44.472;-123.352;2022-12-07T09:45:40;101085.91;;;1.51;94.57
64551;BME280;50945;44.472;-123.352;2022-12-07T09:48:18;101084.06;;;1.52;94.51
64551;BME280;50945;44.472;-123.352;2022-12-07T09:50:47;101092.38;;;1.49;94.24
64551;BME280;50945;44.472;-123.352;2022-12-07T09:53:27;101098.66;;;1.49;94.63
64551;BME280;50945;44.472;-123.352;2022-12-07T09:55:54;101097.66;;;1.50;95.07
64551;BME280;50945;44.472;-123.352;2022-12-07T09:58:24;101100.25;;;1.52;95.09
64551;BME280;50945;44.472;-123.352;2022-12-07T10:03:39;101093.91;;;1.53;94.54
64551;BME280;50945;44.472;-123.352;2022-12-07T10:06:07;101092.16;;;1.52;94.41
64551;BME280;50945;44.472;-123.352;2022-12-07T10:08:33;101088.72;;;1.50;94.45
64551;BME280;50945;44.472;-123.352;2022-12-07T10:11:03;101093.25;;;1.49;94.82
64551;BME280;50945;44.472;-123.352;2022-12-07T10:13:41;101087.97;;;1.48;94.80
64551;BME280;50945;44.472;-123.352;2022-12-07T10:18:51;101089.78;;;1.47;94.20
64551;BME280;50945;44.472;-123.352;2022-12-07T10:21:22;101095.94;;;1.49;94.53
64551;BME280;50945;44.472;-123.352;2022-12-07T10:24:04;101092.25;;;1.50;94.24
64551;BME280;50945;44.472;-123.352;2022-12-07T10:34:44;101101.09;;;1.40;94.14
64551;BME280;50945;44.472;-123.352;2022-12-07T10:39:48;101099.59;;;1.36;93.79
64551;BME280;50945;44.472;-123.352;2022-12-07T10:42:27;101102.31;;;1.36;94.22
64551;BME280;50945;44.472;-123.352;2022-12-07T10:47:47;101098.84;;;1.33;94.26
64551;BME280;50945;44.472;-123.352;2022-12-07T11:11:34;101089.78;;;1.22;94.62
64551;BME280;50945;44.472;-123.352;2022-12-07T11:14:10;101087.75;;;1.25;94.47
64551;BME280;50945;44.472;-123.352;2022-12-07T11:28:08;101075.22;;;1.24;94.69
64551;BME280;50945;44.472;-123.352;2022-12-07T11:33:57;101057.25;;;1.25;94.65
64551;BME280;50945;44.472;-123.352;2022-12-07T11:36:37;101058.09;;;1.25;94.43
64551;BME280;50945;44.472;-123.352;2022-12-07T11:41:51;101047.44;;;1.24;94.37
64551;BME280;50945;44.472;-123.352;2022-12-07T11:50:09;101055.41;;;1.25;94.48
64551;BME280;50945;44.472;-123.352;2022-12-07T11:52:48;101050.03;;;1.25;94.36
64551;BME280;50945;44.472;-123.352;2022-12-07T11:55:26;101050.22;;;1.22;93.98
64551;BME280;50945;44.472;-123.352;2022-12-07T12:06:42;101032.38;;;1.21;94.32
64551;BME280;50945;44.472;-123.352;2022-12-07T12:20:35;101044.75;;;1.11;94.64
64551;BME280;50945;44.472;-123.352;2022-12-07T12:23:57;101045.69;;;1.10;94.50
64551;BME280;50945;44.472;-123.352;2022-12-07T12:25:59;101041.41;;;1.07;94.66
64551;BME280;50945;44.472;-123.352;2022-12-07T12:28:35;101045.06;;;1.06;94.82
64551;BME280;50945;44.472;-123.352;2022-12-07T12:33:59;101046.91;;;1.06;94.91
64551;BME280;50945;44.472;-123.352;2022-12-07T12:55:11;101006.59;;;1.17;95.17
64551;BME280;50945;44.472;-123.352;2022-12-07T12:57:38;101011.88;;;1.19;94.99
64551;BME280;50945;44.472;-123.352;2022-12-07T13:00:23;101018.78;;;1.23;95.11
64551;BME280;50945;44.472;-123.352;2022-12-07T13:02:55;101016.84;;;1.25;95.03
64551;BME280;50945;44.472;-123.352;2022-12-07T13:05:28;101015.97;;;1.24;95.01
64551;BME280;50945;44.472;-123.352;2022-12-07T13:07:58;101012.31;;;1.25;94.88
64551;BME280;50945;44.472;-123.352;2022-12-07T13:26:39;101019.31;;;1.41;95.01
64551;BME280;50945;44.472;-123.352;2022-12-07T13:31:40;101019.31;;;1.41;94.59
64551;BME280;50945;44.472;-123.352;2022-12-07T13:37:00;101015.88;;;1.39;94.90
64551;BME280;50945;44.472;-123.352;2022-12-07T13:39:28;101015.75;;;1.40;94.79
64551;BME280;50945;44.472;-123.352;2022-12-07T13:41:56;101011.13;;;1.42;94.87
64551;BME280;50945;44.472;-123.352;2022-12-07T13:44:26;101017.38;;;1.43;94.46
64551;BME280;50945;44.472;-123.352;2022-12-07T13:49:50;101015.53;;;1.43;94.28
64551;BME280;50945;44.472;-123.352;2022-12-07T13:52:26;101014.56;;;1.44;94.80
64551;BME280;50945;44.472;-123.352;2022-12-07T13:57:24;101017.91;;;1.48;94.54
64551;BME280;50945;44.472;-123.352;2022-12-07T13:59:52;101017.03;;;1.47;94.48
64551;BME280;50945;44.472;-123.352;2022-12-07T14:02:21;101019.72;;;1.47;94.42
64551;BME280;50945;44.472;-123.352;2022-12-07T14:04:51;101016.28;;;1.45;93.99
64551;BME280;50945;44.472;-123.352;2022-12-07T14:10:00;101016.53;;;1.42;94.40
64551;BME280;50945;44.472;-123.352;2022-12-07T14:12:28;101014.69;;;1.43;94.43
64551;BME280;50945;44.472;-123.352;2022-12-07T14:14:56;101016.28;;;1.45;94.20
64551;BME280;50945;44.472;-123.352;2022-12-07T14:17:24;101016.28;;;1.45;94.36
64551;BME280;50945;44.472;-123.352;2022-12-07T14:20:01;101026.09;;;1.46;94.20
64551;BME280;50945;44.472;-123.352;2022-12-07T14:22:33;101017.03;;;1.47;94.52
64551;BME280;50945;44.472;-123.352;2022-12-07T14:25:16;101022.41;;;1.47;94.36
64551;BME280;50945;44.472;-123.352;2022-12-07T14:27:55;101009.81;;;1.48;94.52
64551;BME280;50945;44.472;-123.352;2022-12-07T14:30:24;101016.91;;;1.49;94.67
64551;BME280;50945;44.472;-123.352;2022-12-07T14:33:01;101013.25;;;1.50;94.42
64551;BME280;50945;44.472;-123.352;2022-12-07T14:35:28;101014.97;;;1.51;94.54
64551;BME280;50945;44.472;-123.352;2022-12-07T14:37:55;101003.22;;;1.52;94.04
64551;BME280;50945;44.472;-123.352;2022-12-07T14:40:25;101006.88;;;1.51;93.94
64551;BME280;50945;44.472;-123.352;2022-12-07T14:43:21;101005.06;;;1.51;93.86
64551;BME280;50945;44.472;-123.352;2022-12-07T14:45:48;101009.47;;;1.52;94.34
64551;BME280;50945;44.472;-123.352;2022-12-07T14:48:15;101007.78;;;1.51;93.91
64551;BME280;50945;44.472;-123.352;2022-12-07T14:50:43;101009.81;;;1.48;94.68
64551;BME280;50945;44.472;-123.352;2022-12-07T14:53:14;101014.34;;;1.47;94.28
64551;BME280;50945;44.472;-123.352;2022-12-07T14:55:41;101012.53;;;1.48;94.30
64551;BME280;50945;44.472;-123.352;2022-12-07T14:58:14;101016.91;;;1.49;94.13
64551;BME280;50945;44.472;-123.352;2022-12-07T15:00:40;101021.34;;;1.50;94.19
64551;BME280;50945;44.472;-123.352;2022-12-07T15:03:06;101014.13;;;1.50;93.86
64551;BME280;50945;44.472;-123.352;2022-12-07T15:05:33;101009.72;;;1.49;93.62
64551;BME280;50945;44.472;-123.352;2022-12-07T15:08:00;101019.72;;;1.47;94.38
64551;BME280;50945;44.472;-123.352;2022-12-07T15:10:29;101012.63;;;1.46;93.99
64551;BME280;50945;44.472;-123.352;2022-12-07T15:12:58;101018.88;;;1.47;93.65
64551;BME280;50945;44.472;-123.352;2022-12-07T15:15:46;101019.84;;;1.46;93.87
64551;BME280;50945;44.472;-123.352;2022-12-07T15:18:12;101012.63;;;1.46;93.46
64551;BME280;50945;44.472;-123.352;2022-12-07T15:20:39;101012.53;;;1.48;93.91
64551;BME280;50945;44.472;-123.352;2022-12-07T15:23:05;101025.09;;;1.47;93.47
64551;BME280;50945;44.472;-123.352;2022-12-07T15:25:32;101022.41;;;1.47;93.74
64551;BME280;50945;44.472;-123.352;2022-12-07T15:27:58;101019.72;;;1.47;94.00
64551;BME280;50945;44.472;-123.352;2022-12-07T15:30:24;101013.59;;;1.45;93.65
64551;BME280;50945;44.472;-123.352;2022-12-07T15:32:51;101026.09;;;1.46;94.13
64551;BME280;50945;44.472;-123.352;2022-12-07T15:35:18;101024.25;;;1.47;93.94
64551;BME280;50945;44.472;-123.352;2022-12-07T15:37:45;101021.78;;;1.44;93.87
64551;BME280;50945;44.472;-123.352;2022-12-07T15:40:12;101018.13;;;1.45;93.70